createdAt,value
2018-01-30T00:00:04.120Z,0
2018-01-30T00:01:04.093Z,0
2018-01-30T00:02:04.316Z,0
2018-01-30T00:03:04.036Z,0
2018-01-30T00:04:03.774Z,0
2018-01-30T00:05:03.740Z,0
2018-01-30T00:06:04.204Z,0
2018-01-30T00:07:03.682Z,0
2018-01-30T00:08:03.655Z,0
2018-01-30T00:09:03.639Z,0
2018-01-30T00:10:03.602Z,0
2018-01-30T00:11:03.822Z,0
2018-01-30T00:12:03.790Z,0
2018-01-30T00:13:04.135Z,0
2018-01-30T00:14:03.743Z,0
2018-01-30T00:15:03.710Z,0
2018-01-30T00:16:03.934Z,0
2018-01-30T00:17:03.660Z,0
2018-01-30T00:18:03.670Z,0
2018-01-30T00:19:03.609Z,0
2018-01-30T00:20:03.817Z,0
2018-01-30T00:21:03.841Z,0
2018-01-30T00:22:03.527Z,0
2018-01-30T00:23:03.248Z,0
2018-01-30T00:24:03.753Z,0
2018-01-30T00:25:03.196Z,0
2018-01-30T00:26:03.659Z,0
2018-01-30T00:27:03.385Z,0
2018-01-30T00:28:03.356Z,0
2018-01-30T00:29:03.085Z,0
2018-01-30T00:30:03.551Z,0
2018-01-30T00:31:03.277Z,0
2018-01-30T00:32:03.253Z,0
2018-01-30T00:33:03.225Z,0
2018-01-30T00:34:03.440Z,0
2018-01-30T00:35:03.165Z,0
2018-01-30T00:36:03.143Z,0
2018-01-30T00:37:02.869Z,0
2018-01-30T00:38:03.390Z,0
2018-01-30T00:39:03.056Z,0
2018-01-30T00:40:02.794Z,0
2018-01-30T00:41:03.256Z,0
2018-01-30T00:42:02.980Z,0
2018-01-30T00:43:02.958Z,0
2018-01-30T00:44:02.923Z,0
2018-01-30T00:45:03.136Z,0
2018-01-30T00:46:03.112Z,0
2018-01-30T00:47:03.088Z,0
2018-01-30T00:48:03.053Z,0
2018-01-30T00:49:02.779Z,0
2018-01-30T00:50:02.755Z,0
2018-01-30T00:51:02.736Z,0
2018-01-30T00:52:02.945Z,0
2018-01-30T00:53:02.923Z,0
2018-01-30T00:54:02.893Z,0
2018-01-30T00:55:02.901Z,0
2018-01-30T00:56:02.099Z,0
2018-01-30T00:57:02.566Z,0
2018-01-30T00:58:02.537Z,0
2018-01-30T00:59:02.886Z,0
2018-01-30T01:00:02.729Z,0
2018-01-30T01:01:02.454Z,0
2018-01-30T01:02:02.675Z,0
2018-01-30T01:03:02.646Z,0
2018-01-30T01:04:02.613Z,0
2018-01-30T01:05:02.590Z,0
2018-01-30T01:06:02.568Z,0
2018-01-30T01:07:02.288Z,0
2018-01-30T01:08:02.521Z,0
2018-01-30T01:09:02.479Z,0
2018-01-30T01:10:02.553Z,0
2018-01-30T01:11:02.425Z,0
2018-01-30T01:12:02.475Z,0
2018-01-30T01:13:02.420Z,0
2018-01-30T01:14:02.651Z,0
2018-01-30T01:15:02.177Z,0
2018-01-30T01:16:02.290Z,0
2018-01-30T01:17:02.016Z,0
2018-01-30T01:18:01.842Z,0
2018-01-30T01:19:01.710Z,0
2018-01-30T01:20:02.179Z,0
2018-01-30T01:21:01.902Z,0
2018-01-30T01:22:02.123Z,0
2018-01-30T01:23:01.857Z,0
2018-01-30T01:24:02.065Z,0
2018-01-30T01:25:01.794Z,0
2018-01-30T01:26:01.766Z,0
2018-01-30T01:27:01.995Z,0
2018-01-30T01:28:01.711Z,0
2018-01-30T01:29:01.926Z,0
2018-01-30T01:30:01.901Z,0
2018-01-30T01:31:01.628Z,0
2018-01-30T01:32:01.602Z,0
2018-01-30T01:33:01.577Z,0
2018-01-30T01:34:01.299Z,0
2018-01-30T01:35:01.759Z,0
2018-01-30T01:36:01.492Z,0
2018-01-30T01:37:01.459Z,0
2018-01-30T01:38:01.676Z,0
2018-01-30T01:39:01.414Z,0
2018-01-30T01:40:01.376Z,0
2018-01-30T01:41:01.597Z,0
2018-01-30T01:42:01.327Z,0
2018-01-30T01:43:01.292Z,0
2018-01-30T01:44:01.267Z,0
2018-01-30T01:45:01.238Z,0
2018-01-30T01:46:01.207Z,0
2018-01-30T01:47:00.689Z,0
2018-01-30T01:48:01.400Z,0
2018-01-30T01:49:01.393Z,0
2018-01-30T01:50:00.858Z,0
2018-01-30T01:51:00.824Z,0
2018-01-30T01:52:01.285Z,0
2018-01-30T01:53:01.412Z,0
2018-01-30T01:54:00.979Z,0
2018-01-30T01:55:00.957Z,0
2018-01-30T01:56:00.926Z,0
2018-01-30T01:57:00.902Z,0
2018-01-30T01:58:01.116Z,0
2018-01-30T01:59:00.842Z,0
2018-01-30T02:00:01.068Z,0
2018-01-30T02:01:00.787Z,0
2018-01-30T02:02:01.007Z,0
2018-01-30T02:03:00.728Z,0
2018-01-30T02:04:00.711Z,0
2018-01-30T02:05:00.180Z,0
2018-01-30T02:06:00.647Z,0
2018-01-30T02:07:00.863Z,0
2018-01-30T02:08:00.586Z,0
2018-01-30T02:09:00.898Z,0
2018-01-30T02:10:00.778Z,0
2018-01-30T02:11:00.506Z,0
2018-01-30T02:12:01.062Z,0
2018-01-30T02:13:00.449Z,0
2018-01-30T02:14:00.420Z,0
2018-01-30T02:15:00.637Z,0
2018-01-30T02:16:00.618Z,0
2018-01-30T02:17:00.573Z,0
2018-01-30T02:18:00.546Z,0
2018-01-30T02:19:00.524Z,0
2018-01-30T02:20:00.244Z,0
2018-01-30T02:21:00.465Z,0
2018-01-30T02:22:00.444Z,0
2018-01-30T02:23:00.163Z,0
2018-01-30T02:24:00.130Z,0
2018-01-30T02:25:00.350Z,0
2018-01-30T02:26:00.323Z,0
2018-01-30T02:26:59.902Z,0
2018-01-30T02:28:00.262Z,0
2018-01-30T02:29:00.241Z,0
2018-01-30T02:29:59.964Z,0
2018-01-30T02:31:00.186Z,0
2018-01-30T02:32:00.153Z,0
2018-01-30T02:32:59.880Z,0
2018-01-30T02:33:59.849Z,0
2018-01-30T02:35:00.071Z,0
2018-01-30T02:36:00.049Z,0
2018-01-30T02:37:00.003Z,0
2018-01-30T02:37:59.976Z,0
2018-01-30T02:38:59.703Z,0
2018-01-30T02:39:59.498Z,0
2018-01-30T02:40:59.896Z,0
2018-01-30T02:41:59.871Z,0
2018-01-30T02:42:59.633Z,0
2018-01-30T02:43:59.571Z,0
2018-01-30T02:44:59.535Z,0
2018-01-30T02:45:59.749Z,0
2018-01-30T02:46:59.724Z,0
2018-01-30T02:47:59.697Z,0
2018-01-30T02:48:59.685Z,0
2018-01-30T02:49:59.645Z,0
2018-01-30T02:50:59.369Z,0
2018-01-30T02:51:59.582Z,0
2018-01-30T02:52:59.548Z,0
2018-01-30T02:53:59.519Z,0
2018-01-30T02:54:59.494Z,0
2018-01-30T02:55:59.524Z,0
2018-01-30T02:56:59.196Z,0
2018-01-30T02:57:59.160Z,0
2018-01-30T02:58:59.419Z,0
2018-01-30T04:07:05.489Z,0
2018-01-30T04:08:05.945Z,0
2018-01-30T04:09:05.665Z,0
2018-01-30T04:10:05.636Z,0
2018-01-30T04:11:05.368Z,0
2018-01-30T04:12:05.824Z,0
2018-01-30T04:13:05.803Z,0
2018-01-30T04:14:05.773Z,0
2018-01-30T04:15:05.752Z,0
2018-01-30T04:16:05.464Z,0
2018-01-30T04:17:05.449Z,0
2018-01-30T04:18:05.659Z,0
2018-01-30T04:19:05.382Z,0
2018-01-30T04:20:05.101Z,0
2018-01-30T04:21:05.568Z,0
2018-01-30T04:22:05.051Z,0
2018-01-30T04:29:15.582Z,0
2018-01-30T04:29:43.432Z,0
2018-01-30T04:30:43.165Z,0
2018-01-30T04:31:43.626Z,0
2018-01-30T04:32:43.105Z,0
2018-01-30T04:33:43.322Z,0
2018-01-30T04:34:43.541Z,0
2018-01-30T04:35:43.013Z,0
2018-01-30T04:36:43.478Z,0
2018-01-30T04:37:42.963Z,0
2018-01-30T04:38:42.931Z,0
2018-01-30T04:39:43.143Z,0
2018-01-30T04:40:42.869Z,0
2018-01-30T04:41:43.097Z,0
2018-01-30T04:42:43.312Z,0
2018-01-30T04:43:42.789Z,0
2018-01-30T04:44:43.253Z,0
2018-01-30T04:45:42.975Z,0
2018-01-30T04:46:42.947Z,0
2018-01-30T04:47:42.426Z,0
2018-01-30T04:48:42.885Z,0
2018-01-30T04:49:42.855Z,0
2018-01-30T04:50:42.827Z,0
2018-01-30T04:51:42.311Z,0
2018-01-30T04:52:42.772Z,0
2018-01-30T04:53:42.990Z,0
2018-01-30T04:54:42.958Z,0
2018-01-30T04:55:42.682Z,0
2018-01-30T04:56:42.457Z,0
2018-01-30T04:57:42.910Z,0
2018-01-30T04:58:42.897Z,0
2018-01-30T04:59:42.817Z,0
2018-01-30T05:00:42.784Z,0
2018-01-30T05:01:42.504Z,0
2018-01-30T05:02:42.237Z,0
2018-01-30T05:03:42.703Z,0
2018-01-30T05:04:42.424Z,0
2018-01-30T05:05:42.149Z,0
2018-01-30T05:06:42.115Z,0
2018-01-30T05:07:42.341Z,0
2018-01-30T05:08:41.813Z,0
2018-01-30T05:09:42.571Z,0
2018-01-30T05:10:42.501Z,0
2018-01-30T05:11:42.230Z,0
2018-01-30T05:12:42.244Z,0
2018-01-30T05:13:42.158Z,0
2018-01-30T05:14:42.131Z,0
2018-01-30T05:15:42.098Z,0
2018-01-30T05:16:42.440Z,0
2018-01-30T05:17:42.044Z,0
2018-01-30T05:18:42.074Z,0
2018-01-30T05:19:41.983Z,0
2018-01-30T05:20:42.204Z,0
2018-01-30T05:21:41.686Z,0
2018-01-30T05:22:42.149Z,0
2018-01-30T05:23:42.111Z,0
2018-01-30T05:24:41.836Z,0
2018-01-30T05:25:41.570Z,0
2018-01-30T05:26:41.783Z,0
2018-01-30T05:27:41.757Z,0
2018-01-30T05:28:41.720Z,0
2018-01-30T05:29:41.937Z,0
2018-01-30T05:30:41.668Z,0
2018-01-30T05:31:41.397Z,0
2018-01-30T05:32:41.858Z,0
2018-01-30T05:33:41.339Z,0
2018-01-30T05:34:41.802Z,0
2018-01-30T05:35:41.520Z,0
2018-01-30T05:36:41.505Z,0
2018-01-30T05:37:41.221Z,0
2018-01-30T05:38:41.441Z,0
2018-01-30T05:39:41.660Z,0
2018-01-30T05:40:41.627Z,0
2018-01-30T05:41:41.100Z,0
2018-01-30T05:42:41.324Z,0
2018-01-30T05:43:41.297Z,0
2018-01-30T05:44:41.022Z,0
2018-01-30T05:45:40.986Z,0
2018-01-30T05:46:41.210Z,0
2018-01-30T05:47:41.174Z,0
2018-01-30T05:48:40.657Z,0
2018-01-30T05:49:41.129Z,0
2018-01-30T05:50:41.335Z,0
2018-01-30T05:51:41.064Z,0
2018-01-30T05:52:41.289Z,0
2018-01-30T05:53:41.002Z,0
2018-01-30T05:54:41.226Z,0
2018-01-30T05:55:40.731Z,0
2018-01-30T05:56:40.929Z,0
2018-01-30T05:57:40.894Z,0
2018-01-30T05:58:41.107Z,0
2018-01-30T05:59:41.089Z,0
2018-01-30T06:00:40.797Z,0
2018-01-30T06:01:40.776Z,0
2018-01-30T06:02:40.986Z,0
2018-01-30T06:03:40.997Z,0
2018-01-30T06:04:40.697Z,0
2018-01-30T06:05:40.412Z,0
2018-01-30T06:06:40.381Z,0
2018-01-30T06:07:40.354Z,0
2018-01-30T06:08:40.824Z,0
2018-01-30T06:09:40.545Z,0
2018-01-30T06:10:40.759Z,0
2018-01-30T06:11:40.386Z,0
2018-01-30T06:12:40.602Z,0
2018-01-30T06:13:40.645Z,0
2018-01-30T06:14:40.870Z,0
2018-01-30T06:15:40.673Z,0
2018-01-30T06:16:40.338Z,0
2018-01-30T06:17:40.063Z,0
2018-01-30T06:18:40.318Z,0
2018-01-30T06:19:40.009Z,0
2018-01-30T06:20:40.474Z,0
2018-01-30T06:21:40.194Z,0
2018-01-30T06:22:40.172Z,0
2018-01-30T06:23:40.133Z,0
2018-01-30T06:24:39.862Z,0
2018-01-30T06:25:40.327Z,0
2018-01-30T06:26:40.317Z,0
2018-01-30T06:27:40.270Z,0
2018-01-30T06:28:40.234Z,0
2018-01-30T06:29:39.962Z,0
2018-01-30T06:30:39.934Z,0
2018-01-30T06:31:40.149Z,0
2018-01-30T06:32:39.873Z,0
2018-01-30T06:33:39.849Z,4
2018-01-30T06:34:40.071Z,4
2018-01-30T06:35:40.034Z,0
2018-01-30T06:36:39.771Z,4
2018-01-30T06:37:39.974Z,4
2018-01-30T06:38:39.708Z,0
2018-01-30T06:39:39.913Z,4
2018-01-30T06:40:39.897Z,4
2018-01-30T06:41:39.868Z,8
2018-01-30T06:42:39.584Z,8
2018-01-30T06:43:39.312Z,8
2018-01-30T06:44:39.528Z,8
2018-01-30T06:45:39.523Z,12
2018-01-30T06:46:39.719Z,12
2018-01-30T06:47:39.444Z,16
2018-01-30T06:48:39.163Z,16
2018-01-30T06:49:39.382Z,24
2018-01-30T06:50:39.596Z,24
2018-01-30T06:51:39.331Z,32
2018-01-30T06:52:39.541Z,36
2018-01-30T06:53:39.622Z,40
2018-01-30T06:54:39.480Z,48
2018-01-30T06:55:39.457Z,56
2018-01-30T06:56:39.423Z,64
2018-01-30T06:57:39.151Z,72
2018-01-30T06:58:39.121Z,84
2018-01-30T06:59:39.395Z,100
2018-01-30T07:00:39.313Z,108
2018-01-30T07:01:39.375Z,124
2018-01-30T07:02:39.245Z,144
2018-01-30T07:03:39.220Z,164
2018-01-30T07:04:38.947Z,188
2018-01-30T07:05:38.914Z,212
2018-01-30T07:06:39.142Z,240
2018-01-30T07:07:38.867Z,264
2018-01-30T07:08:39.076Z,292
2018-01-30T07:09:39.048Z,312
2018-01-30T07:10:38.776Z,336
2018-01-30T07:11:38.742Z,368
2018-01-30T07:12:38.960Z,396
2018-01-30T07:13:38.943Z,420
2018-01-30T07:14:38.904Z,452
2018-01-30T07:15:38.873Z,488
2018-01-30T07:16:38.841Z,520
2018-01-30T07:17:38.817Z,552
2018-01-30T07:18:38.850Z,584
2018-01-30T07:19:38.509Z,616
2018-01-30T07:20:38.253Z,648
2018-01-30T07:21:38.702Z,684
2018-01-30T07:22:38.679Z,724
2018-01-30T07:23:38.639Z,764
2018-01-30T07:24:38.613Z,812
2018-01-30T07:25:38.580Z,856
2018-01-30T07:26:38.550Z,904
2018-01-30T07:27:38.528Z,948
2018-01-30T07:28:38.497Z,996
2018-01-30T07:29:38.473Z,1036
2018-01-30T07:30:38.241Z,1072
2018-01-30T07:31:38.509Z,1112
2018-01-30T07:32:38.143Z,1156
2018-01-30T07:33:38.529Z,1208
2018-01-30T07:34:38.326Z,1256
2018-01-30T07:35:38.296Z,1308
2018-01-30T07:36:38.025Z,1368
2018-01-30T07:37:37.748Z,1444
2018-01-30T07:38:38.208Z,1536
2018-01-30T07:39:37.931Z,1620
2018-01-30T07:40:37.904Z,1708
2018-01-30T07:41:38.118Z,1788
2018-01-30T07:42:38.092Z,1900
2018-01-30T07:43:38.064Z,2064
2018-01-30T07:44:38.031Z,2232
2018-01-30T07:45:38.002Z,2352
2018-01-30T07:46:37.974Z,2460
2018-01-30T07:47:37.952Z,2584
2018-01-30T07:48:37.968Z,2692
2018-01-30T07:49:37.890Z,2804
2018-01-30T07:50:37.607Z,2916
2018-01-30T07:51:37.585Z,3080
2018-01-30T07:52:37.657Z,3056
2018-01-30T07:53:37.822Z,2972
2018-01-30T07:54:37.255Z,3016
2018-01-30T07:55:37.468Z,3148
2018-01-30T07:56:37.685Z,3344
2018-01-30T07:57:37.660Z,3468
2018-01-30T07:58:37.384Z,3588
2018-01-30T07:59:37.599Z,3576
2018-01-30T08:00:37.688Z,3576
2018-01-30T08:01:37.299Z,3536
2018-01-30T08:02:37.521Z,3468
2018-01-30T08:03:37.481Z,3564
2018-01-30T08:04:37.452Z,3460
2018-01-30T08:05:37.422Z,3532
2018-01-30T08:06:37.153Z,3492
2018-01-30T08:07:37.126Z,3596
2018-01-30T08:08:36.844Z,3640
2018-01-30T08:09:37.318Z,3692
2018-01-30T08:10:36.791Z,3240
2018-01-30T08:11:37.253Z,3012
2018-01-30T08:12:37.223Z,3288
2018-01-30T08:13:37.629Z,3092
2018-01-30T08:14:37.707Z,3296
2018-01-30T08:15:38.340Z,3944
2018-01-30T08:16:39.436Z,4344
2018-01-30T08:17:37.431Z,3824
2018-01-30T08:18:36.805Z,3684
2018-01-30T08:19:37.040Z,3352
2018-01-30T08:20:36.998Z,3560
2018-01-30T08:21:36.981Z,4416
2018-01-30T08:22:36.948Z,4768
2018-01-30T08:23:36.914Z,4936
2018-01-30T08:24:36.879Z,5200
2018-01-30T08:25:36.608Z,5156
2018-01-30T08:26:36.832Z,4444
2018-01-30T08:27:36.559Z,4288
2018-01-30T08:28:36.774Z,4292
2018-01-30T08:29:36.745Z,4472
2018-01-30T08:30:36.466Z,4904
2018-01-30T08:31:36.446Z,5936
2018-01-30T08:32:36.651Z,5248
2018-01-30T08:33:36.385Z,5744
2018-01-30T08:34:36.358Z,5312
2018-01-30T08:35:36.576Z,5436
2018-01-30T08:36:36.542Z,5444
2018-01-30T08:37:36.273Z,5092
2018-01-30T08:38:36.554Z,5128
2018-01-30T08:39:36.219Z,5232
2018-01-30T08:40:36.192Z,5048
2018-01-30T08:41:35.915Z,5296
2018-01-30T08:42:36.139Z,5804
2018-01-30T08:43:36.105Z,6028
2018-01-30T08:44:36.079Z,5664
2018-01-30T08:45:36.300Z,5244
2018-01-30T08:46:36.348Z,5228
2018-01-30T08:47:36.237Z,5212
2018-01-30T08:48:36.216Z,5360
2018-01-30T08:49:36.182Z,5156
2018-01-30T08:50:35.700Z,5296
2018-01-30T08:51:36.136Z,5416
2018-01-30T08:52:35.855Z,5604
2018-01-30T08:53:36.072Z,5324
2018-01-30T08:54:36.051Z,5576
2018-01-30T08:55:36.015Z,5364
2018-01-30T08:56:35.740Z,5332
2018-01-30T08:57:35.964Z,5676
2018-01-30T08:58:35.931Z,5792
2018-01-30T08:59:35.668Z,5660
2018-01-30T09:00:35.878Z,6280
2018-01-30T09:01:35.858Z,7544
2018-01-30T09:02:35.824Z,6112
2018-01-30T09:03:35.619Z,5912
2018-01-30T09:04:35.516Z,6488
2018-01-30T09:05:35.733Z,6208
2018-01-30T09:06:35.466Z,6576
2018-01-30T09:07:35.683Z,6184
2018-01-30T09:08:35.412Z,6360
2018-01-30T09:09:35.488Z,6736
2018-01-30T09:10:35.159Z,6872
2018-01-30T09:11:35.609Z,6928
2018-01-30T09:12:35.301Z,6448
2018-01-30T09:13:35.516Z,7216
2018-01-30T09:14:35.491Z,8268
2018-01-30T09:15:36.147Z,9556
2018-01-30T09:16:34.942Z,8468
2018-01-30T09:17:35.164Z,8344
2018-01-30T09:18:35.136Z,9160
2018-01-30T09:19:35.354Z,7968
2018-01-30T09:20:35.321Z,9000
2018-01-30T09:21:35.299Z,9352
2018-01-30T09:22:35.266Z,9676
2018-01-30T09:23:34.752Z,9344
2018-01-30T09:24:35.216Z,7752
2018-01-30T09:25:35.110Z,7156
2018-01-30T09:26:35.168Z,9804
2018-01-30T09:27:35.136Z,9868
2018-01-30T09:28:35.169Z,8452
2018-01-30T09:29:35.084Z,8128
2018-01-30T09:30:35.265Z,8924
2018-01-30T09:31:34.538Z,10880
2018-01-30T09:32:34.999Z,10496
2018-01-30T09:33:34.726Z,9636
2018-01-30T09:34:34.951Z,10628
2018-01-30T09:35:34.924Z,10048
2018-01-30T09:36:34.403Z,8236
2018-01-30T09:37:34.865Z,7860
2018-01-30T09:38:34.611Z,8992
2018-01-30T09:39:34.857Z,8932
2018-01-30T09:40:34.537Z,8488
2018-01-30T09:41:34.795Z,8508
2018-01-30T09:42:34.733Z,7564
2018-01-30T09:43:34.938Z,10160
2018-01-30T09:44:34.436Z,8952
2018-01-30T09:45:34.524Z,9208
2018-01-30T09:46:34.762Z,8724
2018-01-30T09:47:34.599Z,9412
2018-01-30T09:48:34.582Z,9816
2018-01-30T09:49:34.318Z,8424
2018-01-30T09:50:34.527Z,9108
2018-01-30T09:51:34.250Z,11092
2018-01-30T09:52:34.470Z,14872
2018-01-30T09:53:34.447Z,11080
2018-01-30T09:54:34.415Z,7940
2018-01-30T09:55:34.149Z,8132
2018-01-30T09:56:34.370Z,9684
2018-01-30T09:57:34.342Z,12092
2018-01-30T09:58:34.309Z,12220
2018-01-30T09:59:34.288Z,10080
2018-01-30T10:00:34.268Z,11832
2018-01-30T10:01:34.240Z,11680
2018-01-30T10:02:34.206Z,11824
2018-01-30T10:03:33.996Z,12624
2018-01-30T10:04:33.907Z,14720
2018-01-30T10:05:34.134Z,12700
2018-01-30T10:06:33.859Z,10560
2018-01-30T10:07:34.080Z,10304
2018-01-30T10:08:34.062Z,11452
2018-01-30T10:09:33.825Z,11992
2018-01-30T10:10:34.008Z,11652
2018-01-30T10:11:33.727Z,9888
2018-01-30T10:12:33.706Z,11424
2018-01-30T10:13:33.677Z,9504
2018-01-30T10:14:33.897Z,9448
2018-01-30T10:15:34.175Z,9228
2018-01-30T10:16:33.599Z,10080
2018-01-30T10:17:33.817Z,8240
2018-01-30T10:18:33.833Z,7360
2018-01-30T10:19:33.769Z,8400
2018-01-30T10:20:33.495Z,8788
2018-01-30T10:21:33.721Z,9640
2018-01-30T10:22:33.449Z,12196
2018-01-30T10:23:33.666Z,13116
2018-01-30T10:24:33.649Z,11224
2018-01-30T10:25:33.621Z,10964
2018-01-30T10:26:33.348Z,10164
2018-01-30T10:27:33.566Z,10716
2018-01-30T10:28:33.538Z,10780
2018-01-30T10:29:33.510Z,12312
2018-01-30T10:30:33.490Z,11808
2018-01-30T10:31:33.527Z,12892
2018-01-30T10:32:33.215Z,11984
2018-01-30T10:33:33.169Z,11924
2018-01-30T10:34:33.383Z,11396
2018-01-30T10:35:33.118Z,10340
2018-01-30T10:36:33.096Z,10688
2018-01-30T10:37:33.078Z,10444
2018-01-30T10:38:32.797Z,10724
2018-01-30T10:39:33.161Z,11484
2018-01-30T10:40:33.292Z,15648
2018-01-30T10:41:32.968Z,12812
2018-01-30T10:42:32.700Z,11772
2018-01-30T10:43:33.168Z,11204
2018-01-30T10:44:33.145Z,10936
2018-01-30T10:45:33.118Z,11452
2018-01-30T10:46:33.216Z,12972
2018-01-30T10:47:32.966Z,12104
2018-01-30T10:48:33.047Z,10744
2018-01-30T10:49:32.527Z,12740
2018-01-30T10:50:32.742Z,11476
2018-01-30T10:51:32.470Z,10032
2018-01-30T10:52:32.746Z,13104
2018-01-30T10:53:32.915Z,13336
2018-01-30T10:54:34.447Z,16584
2018-01-30T10:55:32.863Z,17696
2018-01-30T10:56:32.797Z,17568
2018-01-30T10:57:32.938Z,16620
2018-01-30T10:58:33.261Z,14648
2018-01-30T10:59:32.520Z,15840
2018-01-30T11:00:32.741Z,17984
2018-01-30T11:01:32.717Z,17120
2018-01-30T11:02:32.711Z,17184
2018-01-30T11:03:32.669Z,15928
2018-01-30T11:04:32.399Z,12788
2018-01-30T11:05:32.618Z,12508
2018-01-30T11:06:32.590Z,12596
2018-01-30T11:07:32.569Z,12364
2018-01-30T11:08:32.549Z,15212
2018-01-30T11:09:32.275Z,17664
2018-01-30T11:10:32.004Z,15932
2018-01-30T11:11:32.551Z,14752
2018-01-30T11:12:32.450Z,14884
2018-01-30T11:13:32.420Z,19872
2018-01-30T11:14:32.153Z,21184
2018-01-30T11:15:32.128Z,17344
2018-01-30T11:16:32.107Z,13780
2018-01-30T11:17:32.331Z,14868
2018-01-30T11:18:32.298Z,16364
2018-01-30T11:19:32.031Z,17952
2018-01-30T11:20:32.009Z,16664
2018-01-30T11:21:31.986Z,15440
2018-01-30T11:22:32.220Z,14204
2018-01-30T11:23:32.208Z,14252
2018-01-30T11:24:31.931Z,18464
2018-01-30T11:25:31.662Z,17408
2018-01-30T11:26:31.884Z,16284
2018-01-30T11:27:31.855Z,13656
2018-01-30T11:28:31.833Z,14516
2018-01-30T11:29:31.816Z,13052
2018-01-30T11:30:31.545Z,12984
2018-01-30T11:31:31.765Z,16524
2018-01-30T11:32:32.435Z,17440
2018-01-30T11:33:31.712Z,17504
2018-01-30T11:34:31.940Z,16548
2018-01-30T11:35:31.425Z,14224
2018-01-30T11:36:31.649Z,15980
2018-01-30T11:37:31.623Z,19360
2018-01-30T11:38:32.037Z,18400
2018-01-30T11:39:33.391Z,18560
2018-01-30T11:40:33.544Z,17856
2018-01-30T11:41:33.137Z,16036
2018-01-30T11:42:33.560Z,12564
2018-01-30T11:43:32.415Z,10328
2018-01-30T11:44:34.077Z,10536
2018-01-30T11:45:33.907Z,12136
2018-01-30T11:46:33.976Z,13320
2018-01-30T11:47:33.988Z,12184
2018-01-30T11:48:33.207Z,11644
2018-01-30T11:49:33.773Z,9592
2018-01-30T11:50:32.348Z,8304
2018-01-30T11:51:31.297Z,8396
2018-01-30T11:52:31.297Z,9228
2018-01-30T11:53:31.004Z,11544
2018-01-30T11:54:31.231Z,11756
2018-01-30T11:55:31.271Z,10792
2018-01-30T11:56:31.420Z,9424
2018-01-30T11:57:31.149Z,7936
2018-01-30T11:58:31.128Z,8244
2018-01-30T11:59:31.105Z,11788
2018-01-30T12:00:31.331Z,12904
2018-01-30T12:01:30.849Z,12708
2018-01-30T12:02:30.785Z,12760
2018-01-30T12:03:31.018Z,13120
2018-01-30T12:04:30.998Z,12988
2018-01-30T12:05:30.960Z,12852
2018-01-30T12:06:30.935Z,13336
2018-01-30T12:07:30.918Z,14304
2018-01-30T12:08:30.659Z,16196
2018-01-30T12:09:31.114Z,17728
2018-01-30T12:10:30.842Z,16468
2018-01-30T12:11:30.824Z,16456
2018-01-30T12:12:30.791Z,16184
2018-01-30T12:13:30.775Z,15620
2018-01-30T12:14:31.004Z,14952
2018-01-30T12:15:30.233Z,15524
2018-01-30T12:16:32.405Z,14896
2018-01-30T12:17:33.143Z,13900
2018-01-30T12:18:31.204Z,13472
2018-01-30T12:19:31.234Z,13736
2018-01-30T12:20:30.609Z,15012
2018-01-30T12:21:30.586Z,14028
2018-01-30T12:22:30.543Z,12836
2018-01-30T12:23:30.332Z,12608
2018-01-30T12:24:30.262Z,12832
2018-01-30T12:25:30.728Z,13916
2018-01-30T12:26:30.726Z,14464
2018-01-30T12:27:30.682Z,14588
2018-01-30T12:28:30.665Z,14072
2018-01-30T12:29:30.389Z,12932
2018-01-30T12:30:30.374Z,12748
2018-01-30T12:31:30.666Z,12892
2018-01-30T12:32:31.106Z,11820
2018-01-30T12:33:31.917Z,10396
2018-01-30T12:34:30.780Z,9808
2018-01-30T12:35:29.999Z,9428
2018-01-30T12:36:30.465Z,8692
2018-01-30T12:37:30.451Z,8056
2018-01-30T12:38:30.173Z,7228
2018-01-30T12:39:30.402Z,8128
2018-01-30T12:40:30.372Z,9332
2018-01-30T12:41:29.917Z,8520
2018-01-30T12:42:29.823Z,8120
2018-01-30T12:43:30.051Z,7536
2018-01-30T12:44:29.782Z,8032
2018-01-30T12:45:30.245Z,8408
2018-01-30T12:46:30.230Z,8164
2018-01-30T12:47:30.209Z,7920
2018-01-30T12:48:29.436Z,8104
2018-01-30T12:49:29.900Z,8440
2018-01-30T12:50:30.125Z,8608
2018-01-30T12:51:30.108Z,8408
2018-01-30T12:52:29.830Z,8396
2018-01-30T12:53:29.808Z,8652
2018-01-30T12:54:29.832Z,8696
2018-01-30T12:55:30.021Z,8688
2018-01-30T12:56:29.500Z,8572
2018-01-30T12:57:29.522Z,8368
2018-01-30T12:58:30.055Z,8344
2018-01-30T12:59:29.675Z,8384
2018-01-30T13:00:29.888Z,8216
2018-01-30T13:01:29.610Z,8456
2018-01-30T13:02:29.592Z,8332
2018-01-30T13:03:29.618Z,7996
2018-01-30T13:04:29.706Z,7940
2018-01-30T13:05:29.515Z,7880
2018-01-30T13:06:29.490Z,7940
2018-01-30T13:07:29.220Z,8104
2018-01-30T13:08:29.675Z,8364
2018-01-30T13:09:29.399Z,8452
2018-01-30T13:10:29.371Z,8512
2018-01-30T13:11:29.591Z,8552
2018-01-30T13:12:29.315Z,8572
2018-01-30T13:13:29.535Z,8744
2018-01-30T13:14:29.020Z,8944
2018-01-30T13:15:29.538Z,9172
2018-01-30T13:16:29.469Z,9464
2018-01-30T13:17:29.489Z,10960
2018-01-30T13:18:29.173Z,10668
2018-01-30T13:19:29.135Z,10000
2018-01-30T13:20:29.362Z,10216
2018-01-30T13:21:29.335Z,10352
2018-01-30T13:22:29.453Z,10620
2018-01-30T13:23:29.322Z,10748
2018-01-30T13:24:28.531Z,10540
2018-01-30T13:25:29.245Z,11104
2018-01-30T13:26:29.225Z,12248
2018-01-30T13:27:28.964Z,11556
2018-01-30T13:28:28.677Z,10904
2018-01-30T13:29:28.691Z,10368
2018-01-30T13:30:28.873Z,10248
2018-01-30T13:31:28.904Z,10324
2018-01-30T13:32:28.597Z,10072
2018-01-30T13:33:28.803Z,9424
2018-01-30T13:34:28.529Z,9084
2018-01-30T13:35:28.749Z,9500
2018-01-30T13:36:28.970Z,9656
2018-01-30T13:37:28.690Z,8872
2018-01-30T13:38:28.917Z,8752
2018-01-30T13:39:28.893Z,8916
2018-01-30T13:40:28.870Z,8848
2018-01-30T13:41:28.842Z,8328
2018-01-30T13:42:28.162Z,7944
2018-01-30T13:43:28.296Z,7728
2018-01-30T13:44:28.640Z,7692
2018-01-30T13:45:28.769Z,7296
2018-01-30T13:46:28.522Z,7160
2018-01-30T13:47:28.444Z,7252
2018-01-30T13:48:28.676Z,7288
2018-01-30T13:49:28.182Z,7248
2018-01-30T13:50:28.131Z,7176
2018-01-30T13:51:28.344Z,7264
2018-01-30T13:52:28.322Z,7344
2018-01-30T13:53:28.539Z,7328
2018-01-30T13:54:28.526Z,7308
2018-01-30T13:55:28.300Z,7364
2018-01-30T13:56:28.467Z,7416
2018-01-30T13:57:28.453Z,7508
2018-01-30T13:58:27.922Z,7512
2018-01-30T13:59:28.393Z,7428
2018-01-30T14:00:28.115Z,7352
2018-01-30T14:01:28.086Z,7484
2018-01-30T14:02:28.320Z,7624
2018-01-30T14:03:28.311Z,7496
2018-01-30T14:04:28.266Z,7424
2018-01-30T14:05:27.752Z,7400
2018-01-30T14:06:28.211Z,7048
2018-01-30T14:07:27.947Z,7120
2018-01-30T14:08:27.913Z,7040
2018-01-30T14:09:27.634Z,6904
2018-01-30T14:10:27.853Z,6796
2018-01-30T14:11:28.074Z,6816
2018-01-30T14:12:27.565Z,6716
2018-01-30T14:13:28.030Z,6612
2018-01-30T14:14:27.512Z,6420
2018-01-30T14:15:27.725Z,6356
2018-01-30T14:16:27.955Z,6288
2018-01-30T14:17:27.923Z,6364
2018-01-30T14:18:27.652Z,6440
2018-01-30T14:19:27.889Z,6356
2018-01-30T14:20:27.861Z,6228
2018-01-30T14:21:27.582Z,6148
2018-01-30T14:22:27.839Z,6032
2018-01-30T14:23:27.528Z,5908
2018-01-30T14:24:27.256Z,5880
2018-01-30T14:25:27.478Z,5924
2018-01-30T14:26:27.452Z,5968
2018-01-30T14:27:27.176Z,6116
2018-01-30T14:28:27.636Z,6132
2018-01-30T14:29:27.386Z,5960
2018-01-30T14:30:27.582Z,5948
2018-01-30T14:31:27.315Z,5932
2018-01-30T14:32:27.287Z,5960
2018-01-30T14:33:27.260Z,6028
2018-01-30T14:34:27.220Z,5900
2018-01-30T14:35:27.440Z,5932
2018-01-30T14:36:27.424Z,5776
2018-01-30T14:37:27.148Z,5736
2018-01-30T14:38:27.125Z,5668
2018-01-30T14:39:27.339Z,5600
2018-01-30T14:40:27.067Z,5588
2018-01-30T14:41:27.288Z,5496
2018-01-30T14:42:26.772Z,5320
2018-01-30T14:43:26.988Z,5200
2018-01-30T14:44:26.968Z,5096
2018-01-30T14:45:26.935Z,5028
2018-01-30T14:46:26.915Z,4932
2018-01-30T14:47:27.134Z,4844
2018-01-30T14:48:26.863Z,4880
2018-01-30T14:49:26.597Z,4900
2018-01-30T14:50:27.060Z,4852
2018-01-30T14:51:26.778Z,4688
2018-01-30T14:52:27.003Z,4580
2018-01-30T14:53:26.976Z,4488
2018-01-30T14:54:26.703Z,4344
2018-01-30T14:55:27.021Z,4268
2018-01-30T14:56:27.851Z,4176
2018-01-30T14:57:27.643Z,4080
2018-01-30T14:58:27.448Z,4024
2018-01-30T14:59:26.576Z,3980
2018-01-30T15:00:26.714Z,3964